createdAt,value
2019-05-01T06:46:12.183Z,101507.67
2019-05-01T06:51:39.816Z,101509.00
2019-05-01T06:57:06.537Z,101512.20
2019-05-01T07:02:38.239Z,101513.72
2019-05-01T07:13:20.658Z,101523.48
2019-05-01T07:18:51.011Z,101519.89
2019-05-01T07:24:16.993Z,101525.79
2019-05-01T07:29:47.545Z,101514.13
2019-05-01T07:35:05.265Z,101515.13
2019-05-01T07:40:31.817Z,101510.22
2019-05-01T07:45:46.804Z,101515.88
2019-05-01T07:51:11.112Z,101508.58
2019-05-01T07:56:31.844Z,101506.05
2019-05-01T08:01:57.034Z,101504.78
2019-05-01T08:07:09.372Z,101501.69
2019-05-01T08:12:27.310Z,101512.69
2019-05-01T08:17:55.219Z,101506.73
2019-05-01T08:23:15.068Z,101510.44
2019-05-01T08:28:34.259Z,101509.77
2019-05-01T08:33:54.084Z,101510.67
2019-05-01T08:39:22.794Z,101513.89
2019-05-01T08:45:07.954Z,101513.38
2019-05-01T08:51:04.116Z,101512.70
2019-05-01T08:57:53.944Z,101509.53
2019-05-01T09:03:57.396Z,101509.66
2019-05-01T09:09:49.549Z,101502.45
2019-05-01T09:16:35.524Z,101503.14
2019-05-01T09:22:38.682Z,101498.15
2019-05-01T09:29:18.970Z,101503.12
2019-05-01T09:34:26.623Z,101492.94
2019-05-01T09:39:49.069Z,101493.96
2019-05-01T09:45:06.172Z,101496.13
2019-05-01T09:50:09.573Z,101484.37
2019-05-01T09:55:44.243Z,101487.55
2019-05-01T10:00:55.634Z,101482.84
2019-05-01T10:05:59.371Z,101476.42
2019-05-01T10:11:30.466Z,101465.12
2019-05-01T10:16:24.500Z,101463.89
2019-05-01T10:21:37.982Z,101456.78
2019-05-01T10:26:42.333Z,101456.95
2019-05-01T10:32:24.194Z,101458.13
2019-05-01T10:37:36.081Z,101449.24
2019-05-01T10:42:32.686Z,101450.08
2019-05-01T10:47:53.234Z,101442.12
2019-05-01T10:52:47.997Z,101432.47
2019-05-01T10:57:53.357Z,101435.58
2019-05-01T11:02:58.978Z,101431.95
2019-05-01T11:08:02.950Z,101424.09
2019-05-01T11:12:58.681Z,101421.66
2019-05-01T11:18:18.094Z,101423.49
2019-05-01T11:23:18.353Z,101408.19
2019-05-01T11:28:19.800Z,101408.39
2019-05-01T11:33:12.433Z,101405.08
2019-05-01T11:38:06.805Z,101400.92
2019-05-01T11:43:04.422Z,101399.41
2019-05-01T11:47:58.481Z,101396.89
2019-05-01T11:53:01.456Z,101398.66
2019-05-01T11:58:12.176Z,101400.05
2019-05-01T12:03:14.029Z,101390.58
2019-05-01T12:08:15.661Z,101382.77
2019-05-01T12:13:09.331Z,101379.87
2019-05-01T12:18:05.123Z,101375.45
2019-05-01T12:23:08.540Z,101372.34
2019-05-01T12:28:01.719Z,101366.17
2019-05-01T12:32:55.036Z,101360.09
2019-05-01T12:37:51.122Z,101357.31
2019-05-01T12:42:54.426Z,101347.45
2019-05-01T12:47:48.588Z,101340.59
2019-05-01T12:52:51.842Z,101337.73
2019-05-01T12:57:45.667Z,101335.73
2019-05-01T13:02:37.665Z,101331.78
2019-05-01T13:07:33.593Z,101321.60
2019-05-01T13:12:28.379Z,101322.52
2019-05-01T13:17:22.649Z,101319.80
2019-05-01T13:22:18.786Z,101309.77
2019-05-01T13:27:15.045Z,101299.27
2019-05-01T13:32:10.300Z,101294.17
2019-05-01T13:37:05.230Z,101283.23
2019-05-01T13:42:00.298Z,101279.13
2019-05-01T13:46:56.758Z,101263.38
2019-05-01T13:51:48.721Z,101258.52
2019-05-01T13:56:42.014Z,101250.21
2019-05-01T14:01:34.640Z,101241.73
2019-05-01T14:06:26.739Z,101236.90
2019-05-01T14:11:18.678Z,101229.77
2019-05-01T14:16:19.823Z,101222.53
2019-05-01T14:21:11.311Z,101218.14
2019-05-01T14:26:04.251Z,101212.60
2019-05-01T14:30:56.720Z,101210.68
2019-05-01T14:35:49.299Z,101203.52
2019-05-01T14:40:42.174Z,101198.77
2019-05-01T14:45:34.959Z,101182.28
2019-05-01T14:50:53.197Z,101186.58
2019-05-01T14:55:54.608Z,101180.48
2019-05-01T15:07:43.530Z,101154.22
2019-05-01T15:12:33.469Z,101149.02
2019-05-01T15:18:20.024Z,101153.05
2019-05-01T15:23:06.347Z,101144.77
2019-05-01T15:28:05.944Z,101140.75
2019-05-01T15:33:07.202Z,101136.02
2019-05-01T15:43:59.556Z,101126.56
2019-05-01T15:49:56.106Z,101121.65
2019-05-01T16:01:26.782Z,101111.65
2019-05-01T16:06:49.476Z,101113.69
2019-05-01T16:11:55.584Z,101105.52
2019-05-01T16:17:02.397Z,101101.92
2019-05-01T16:21:59.691Z,101094.66
2019-05-01T16:27:15.102Z,101087.38
2019-05-01T16:32:04.311Z,101082.97
2019-05-01T16:37:00.569Z,101084.63
2019-05-01T16:48:08.491Z,101082.78
2019-05-01T16:53:15.120Z,101071.12
2019-05-01T17:06:00.360Z,101051.42
2019-05-01T17:12:12.775Z,101048.67
2019-05-01T17:22:50.721Z,101040.22
2019-05-01T17:28:35.421Z,101031.59
2019-05-01T17:34:10.517Z,101032.03
2019-05-01T17:38:56.721Z,101032.30
2019-05-01T17:44:04.766Z,101028.40
2019-05-01T17:55:10.625Z,101040.22
2019-05-01T18:00:29.993Z,101039.72
2019-05-01T18:06:04.704Z,101039.27
2019-05-01T18:11:00.618Z,101038.11
2019-05-01T18:16:51.134Z,101037.48
2019-05-01T18:22:06.039Z,101035.47
2019-05-01T18:40:05.732Z,101036.66
2019-05-01T18:45:28.226Z,101028.36
2019-05-01T18:56:49.339Z,101028.50
2019-05-01T19:02:02.465Z,101027.30
2019-05-01T19:07:20.614Z,101024.75
2019-05-01T19:13:13.748Z,101025.64
2019-05-01T19:18:53.557Z,101026.17
2019-05-01T19:24:45.121Z,101031.23
2019-05-01T19:48:16.484Z,101030.98
2019-05-01T20:04:23.409Z,101040.56
2019-05-01T20:10:28.236Z,101034.91
2019-05-01T20:15:59.978Z,101035.50
2019-05-01T20:24:10.618Z,101041.86
2019-05-01T20:29:58.484Z,101031.23
2019-05-01T20:35:13.390Z,101032.78
2019-05-01T20:43:55.104Z,101034.11
2019-05-01T20:50:09.019Z,101036.78
2019-05-01T20:55:22.439Z,101032.10
2019-05-01T21:04:11.460Z,101032.84
2019-05-01T21:11:00.791Z,101030.23
2019-05-01T21:35:14.683Z,101026.68
2019-05-01T21:49:07.107Z,101018.53
2019-05-01T22:02:29.217Z,101024.11
2019-05-01T22:08:07.425Z,101020.71
2019-05-01T22:13:26.705Z,101016.77
2019-05-01T22:19:38.780Z,101021.94
2019-05-01T22:33:34.892Z,101016.92
2019-05-01T22:41:46.690Z,101003.07
